EGXT - Wittering
Distance from station: E 5mi, 14km
Updated: 12/11/2017 5:50pm
Clear
Clear
 Wind from WNW
Wind: WNW 13 mph , 20 km/h
Temperature: 30°F , -1°C
Wind Chill: 20°F , -7°C
Dew Point: 28°F , -2°C
Humidity: 93%
Barometer: 29.5 inHg , 999 hPa
Clouds: Clear
Visibility: 6 miles , 10 km
2017/12/12 01:50 EGXT 120150Z AUTO 30011KT 9999 NCD M01/M02 Q0999